Latest Weather Observations for Bathurst Airport

IDN60801

Issued at 8:05 pm EST Tuesday 30 September 2014 (issued every 30 minutes, with the page automatically refreshed every 10 minutes)

About weather observations | Map of weather stations | Latest weather observations for NSW | Other Formats
Station Details ID: 063291 Name: BATHURST AIRPORT AWS Lat: -33.41 Lon: 149.65 Height: 744.5 m
Data from the previous 72 hours. | See also: Recent months for locations in New South Wales
Date/Time
EST
Temp
°C
App
Temp
°C
Dew
Point
Rel
Hum
%
Delta-T
°C
Wind Press
QNH
hPa
Press
MSL
hPa
Rain
since 9 am
mm
Dir
 
Spd
km/h
Gust
km/h
Spd
kts
Gust
kts
30/08:00pm 16.8 13.2 4.8 45 5.9 WNW 13 17 7 9 1013.9 1013.4 0.0
30/07:30pm 17.4 12.9 4.4 42 6.4 NNW 17 20 9 11 1013.7 1013.2 0.0
30/07:00pm 18.0 13.5 4.2 40 6.8 N 17 19 9 10 1013.5 1013.0 0.0
30/06:30pm 18.9 13.7 3.5 36 7.5 NNW 20 26 11 14 1013.5 1013.0 0.0
30/06:00pm 19.8 14.8 3.5 34 8.0 NW 19 26 10 14 1013.3 1012.8 0.0
30/05:30pm 21.8 16.3 3.9 31 9.0 NW 22 32 12 17 1013.0 1012.5 0.0
30/05:00pm 23.2 16.7 4.7 30 9.5 NW 28 43 15 23 1013.2 1012.7 0.0
30/04:30pm 24.1 17.2 4.5 28 10.1 WNW 30 39 16 21 1013.3 1012.8 0.0
30/04:14pm 24.3 16.9 4.1 27 10.4 WNW 32 50 17 27 1013.3 1012.8 0.0
30/04:00pm 24.5 16.1 3.8 26 10.6 NW 37 50 20 27 1013.2 1012.7 0.0
30/03:30pm 25.1 15.6 3.7 25 10.9 NW 43 59 23 32 1013.5 1013.0 0.0
30/03:22pm 25.4 16.6 3.4 24 11.2 NW 39 59 21 32 1013.5 1013.0 0.0
30/03:00pm 25.3 17.0 4.4 26 10.8 NW 37 50 20 27 1013.4 1012.9 0.0
30/02:41pm 25.7 18.5 4.8 26 10.9 NW 32 50 17 27 1013.6 1013.1 0.0
30/02:30pm 25.6 17.6 5.8 28 10.5 NW 37 46 20 25 1013.7 1013.2 0.0
30/02:20pm 26.1 18.0 5.1 26 11.1 NW 37 56 20 30 1013.8 1013.3 0.0
30/02:00pm 26.0 17.3 3.9 24 11.4 NNW 39 50 21 27 1013.9 1013.4 0.0
30/01:30pm 25.2 15.6 3.2 24 11.2 NNW 43 54 23 29 1014.2 1013.7 0.0
30/01:00pm 25.5 17.4 5.1 27 10.7 NNW 37 48 20 26 1014.9 1014.4 0.0
30/12:50pm 25.5 17.4 7.1 31 10.0 WNW 39 48 21 26 1015.0 1014.5 0.0
30/12:33pm 24.6 16.0 4.9 28 10.3 NNW 39 57 21 31 1015.4 1014.9 0.0
30/12:30pm 24.9 15.9 4.6 27 10.5 NNW 41 57 22 31 1015.4 1014.9 0.0
30/12:21pm 25.3 16.8 5.0 27 10.6 NW 39 57 21 31 1015.5 1015.1 0.0
30/12:00pm 24.0 16.2 4.9 29 9.9 NW 35 48 19 26 1015.9 1015.5 0.0
30/11:31am 24.1 17.3 5.0 29 9.9 NNW 30 50 16 27 1016.2 1015.7 0.0
30/11:30am 24.3 18.0 5.6 30 9.8 NNW 28 41 15 22 1016.3 1015.8 0.0
30/11:00am 23.5 16.9 5.9 32 9.3 NNW 30 37 16 20 1016.6 1016.1 0.0
30/10:30am 22.0 15.2 7.0 38 8.0 NNW 32 41 17 22 1017.2 1016.8 0.0
30/10:00am 21.2 14.0 5.9 37 7.9 NNW 33 43 18 23 1017.3 1016.9 0.0
30/09:30am 21.4 14.2 6.1 37 8.0 NNW 33 43 18 23 1017.8 1017.4 0.0
30/09:00am 20.9 13.9 6.1 38 7.7 NNW 32 43 17 23 1018.0 1017.6 0.0
30/08:30am 20.9 13.5 6.8 40 7.4 NNW 35 46 19 25 1017.8 1017.4 0.0
30/08:00am 19.4 14.2 7.2 45 6.4 NNW 24 32 13 17 1017.5 1017.0 0.0
30/07:30am 16.4 15.3 6.8 53 4.9 NW 2 6 1 3 1017.6 1017.1 0.0
30/07:00am 14.8 12.8 6.1 56 4.3 WNW 6 7 3 4 1017.5 1017.0 0.0
30/06:30am 13.9 12.2 4.2 52 4.6 N 2 6 1 3 1017.2 1016.8 0.0
30/06:00am 12.6 11.3 4.3 57 3.9 CALM 0 0 0 0 1017.0 1016.6 0.0
30/05:30am 12.0 10.8 4.5 60 3.6 CALM 0 0 0 0 1016.7 1016.3 0.0
30/05:00am 11.7 8.8 4.7 62 3.3 N 9 9 5 5 1016.3 1015.8 0.0
30/04:30am 10.4 7.1 4.8 68 2.6 N 11 13 6 7 1016.2 1015.7 0.0
30/04:00am 10.6 6.5 4.3 65 2.9 N 15 15 8 8 1016.3 1015.8 0.0
30/03:30am 11.7 8.0 4.4 61 3.4 N 13 15 7 8 1016.4 1015.9 0.0
30/03:00am 12.5 9.6 4.5 58 3.8 N 9 11 5 6 1016.7 1016.3 0.0
30/02:30am 11.7 8.4 4.4 61 3.4 N 11 13 6 7 1016.9 1016.5 0.0
30/02:00am 11.6 8.3 4.3 61 3.4 N 11 13 6 7 1017.1 1016.7 0.0
30/01:30am 12.5 9.5 4.2 57 3.9 N 9 11 5 6 1017.6 1017.1 0.0
30/01:00am 12.9 10.0 4.8 58 3.9 N 9 11 5 6 1017.7 1017.2 0.0
30/12:30am 11.5 8.2 4.5 62 3.3 N 11 11 6 6 1017.8 1017.4 0.0
30/12:00am 12.0 9.1 4.5 60 3.5 N 9 11 5 6 1018.0 1017.6 0.0
 
Date/Time
EST
Temp
°C
App
Temp
°C
Dew
Point
Rel
Hum
%
Delta-T
°C
Wind Press
QNH
hPa
Press
MSL
hPa
Rain
since 9 am
mm
Dir
 
Spd
km/h
Gust
km/h
Spd
kts
Gust
kts
29/11:30pm 11.5 7.9 4.9 64 3.1 N 13 13 7 7 1018.2 1017.8 0.0
29/11:00pm 11.4 7.5 5.3 66 2.9 N 15 17 8 9 1018.3 1017.9 0.0
29/10:30pm 11.4 8.2 5.1 65 3.0 N 11 13 6 7 1018.5 1018.1 0.0
29/10:00pm 12.0 8.4 5.2 63 3.3 N 13 13 7 7 1018.6 1018.2 0.0
29/09:30pm 12.0 8.9 5.4 64 3.2 NNE 11 13 6 7 1018.5 1018.1 0.0
29/09:00pm 12.5 9.4 5.7 63 3.3 NNE 11 11 6 6 1018.6 1018.2 0.0
29/08:30pm 12.5 9.4 5.4 62 3.4 NNE 11 13 6 7 1018.5 1018.1 0.0
29/08:00pm 13.3 10.6 5.5 59 3.8 NNE 9 13 5 7 1018.5 1018.1 0.0
29/07:30pm 14.7 11.1 5.2 53 4.7 NE 13 15 7 8 1018.2 1017.8 0.0
29/07:00pm 16.8 13.9 4.8 45 5.9 NNE 9 11 5 6 1017.9 1017.5 0.0
29/06:30pm 17.8 15.0 5.1 43 6.4 N 9 11 5 6 1017.6 1017.1 0.0
29/06:00pm 18.0 14.4 5.2 43 6.4 NW 13 15 7 8 1017.3 1016.9 0.0
29/05:30pm 20.2 16.0 5.8 39 7.4 NW 17 20 9 11 1017.1 1016.7 0.0
29/05:00pm 22.0 17.4 5.8 35 8.4 NW 19 24 10 13 1016.9 1016.5 0.0
29/04:30pm 22.9 17.8 5.8 33 9.0 NW 22 30 12 16 1016.7 1016.3 0.0
29/04:00pm 23.5 19.0 5.9 32 9.3 WNW 19 28 10 15 1016.6 1016.1 0.0
29/03:30pm 23.5 18.1 4.5 29 9.8 NNW 22 32 12 17 1016.5 1016.0 0.0
29/03:00pm 23.8 18.5 5.2 30 9.7 WNW 22 33 12 18 1016.5 1016.0 0.0
29/02:30pm 24.0 18.4 5.4 30 9.7 WNW 24 33 13 18 1016.6 1016.1 0.0
29/02:00pm 23.9 18.4 5.8 31 9.5 WNW 24 33 13 18 1016.9 1016.5 0.0
29/01:30pm 23.9 19.2 6.2 32 9.4 NW 20 32 11 17 1017.0 1016.6 0.0
29/01:00pm 23.8 19.2 5.7 31 9.5 WNW 19 28 10 15 1017.1 1016.7 0.0
29/12:30pm 23.3 18.5 7.4 36 8.6 WNW 22 32 12 17 1017.6 1017.1 0.0
29/12:00pm 22.7 16.6 6.5 35 8.6 W 28 35 15 19 1017.7 1017.2 0.0
29/11:30am 22.2 15.3 4.7 32 9.0 W 30 39 16 21 1017.9 1017.5 0.0
29/11:00am 22.1 15.6 4.6 32 8.9 WNW 28 37 15 20 1018.1 1017.7 0.0
29/10:30am 21.8 16.2 5.3 34 8.5 NW 24 33 13 18 1018.3 1017.9 0.0
29/10:00am 20.7 14.8 5.9 38 7.7 WNW 26 35 14 19 1018.5 1018.1 0.0
29/09:30am 20.1 14.5 7.1 43 6.9 WNW 26 33 14 18 1018.5 1018.1 0.0
29/09:00am 18.3 13.3 6.5 46 6.1 WNW 22 30 12 16 1018.5 1018.1 0.0
29/08:30am 16.5 14.2 7.4 55 4.7 W 9 13 5 7 1018.6 1018.2 0.0
29/08:00am 14.7 11.5 6.8 59 4.0 NNW 13 15 7 8 1018.5 1018.1 0.0
29/07:30am 13.1 11.0 8.2 72 2.5 N 9 17 5 9 1018.3 1017.9 0.0
29/07:00am 8.9 6.2 5.8 81 1.5 N 9 11 5 6 1018.5 1018.1 0.0
29/06:30am 7.5 6.2 3.9 78 1.6 CALM 0 0 0 0 1018.5 1018.1 0.0
29/06:00am 7.5 4.8 3.6 76 1.7 N 7 7 4 4 1018.3 1017.9 0.0
29/05:30am 8.0 5.3 3.7 74 1.9 NNE 7 9 4 5 1018.1 1017.7 0.0
29/05:00am 7.4 6.1 4.0 79 1.5 CALM 0 0 0 0 1017.9 1017.5 0.0
29/04:30am 6.9 3.4 3.7 80 1.4 NNE 11 13 6 7 1017.6 1017.1 0.0
29/04:00am 7.1 4.0 3.5 78 1.6 NNE 9 11 5 6 1017.6 1017.1 0.0
29/03:30am 8.7 6.0 3.5 70 2.3 NNE 7 7 4 4 1017.9 1017.5 0.0
29/03:00am 9.3 6.6 3.9 69 2.5 NNE 7 9 4 5 1018.0 1017.6 0.0
29/02:30am 8.6 5.5 3.4 70 2.3 NE 9 9 5 5 1018.3 1017.9 0.0
29/02:00am 9.5 7.1 4.1 69 2.5 N 6 7 3 4 1018.6 1018.2 0.0
29/01:30am 9.4 6.4 4.0 69 2.5 NNE 9 11 5 6 1018.9 1018.4 0.0
29/01:00am 8.6 6.2 4.2 74 2.0 N 6 9 3 5 1018.9 1018.4 0.0
29/12:30am 7.0 4.0 4.3 83 1.2 NNE 9 11 5 6 1018.7 1018.3 0.0
29/12:00am 6.7 2.9 3.9 82 1.2 N 13 15 7 8 1018.9 1018.4 0.0
 
Date/Time
EST
Temp
°C
App
Temp
°C
Dew
Point
Rel
Hum
%
Delta-T
°C
Wind Press
QNH
hPa
Press
MSL
hPa
Rain
since 9 am
mm
Dir
 
Spd
km/h
Gust
km/h
Spd
kts
Gust
kts
28/11:30pm 6.7 3.8 4.4 85 1.0 NE 9 13 5 7 1019.3 1018.9 0.0
28/11:00pm 7.5 4.5 4.1 79 1.5 NNE 9 13 5 7 1019.6 1019.2 0.0
28/10:30pm 7.1 4.1 4.1 81 1.4 N 9 17 5 9 1019.8 1019.4 0.0
28/10:00pm 8.1 4.7 3.9 75 1.9 NE 11 13 6 7 1019.7 1019.3 0.0
28/09:30pm 11.9 9.7 3.2 55 4.0 NE 4 7 2 4 1019.8 1019.4 0.0
28/09:00pm 11.9 9.8 3.7 57 3.8 NE 4 7 2 4 1019.8 1019.4 0.0
28/08:30pm 11.4 8.9 3.9 60 3.5 NE 6 7 3 4 1019.5 1019.1 0.0
28/08:00pm 11.6 8.6 4.1 60 3.5 NNE 9 11 5 6 1019.2 1018.8 0.0
28/07:30pm 13.3 10.6 3.7 52 4.5 N 7 9 4 5 1019.0 1018.6 0.0
28/07:00pm 12.6 8.7 3.5 54 4.2 NW 13 15 7 8 1018.5 1018.1 0.0
28/06:30pm 13.1 9.4 4.5 56 4.1 NW 13 17 7 9 1018.3 1017.9 0.0
28/06:00pm 14.6 11.1 5.4 54 4.5 NW 13 17 7 9 1018.2 1017.8 0.0
28/05:30pm 16.9 12.8 4.3 43 6.2 NNW 15 17 8 9 1018.0 1017.6 0.0
28/05:00pm 18.6 13.5 2.9 35 7.6 N 19 24 10 13 1017.9 1017.5 0.0
28/04:30pm 19.5 14.6 5.2 39 7.3 N 20 28 11 15 1018.0 1017.6 0.0
28/04:00pm 20.0 15.9 4.5 36 7.8 NNW 15 24 8 13 1018.1 1017.7 0.0
28/03:30pm 20.1 16.9 5.0 37 7.7 NNW 11 17 6 9 1018.4 1018.0 0.0
28/03:00pm 20.6 16.7 5.4 37 7.8 NNW 15 22 8 12 1018.6 1018.2 0.0
28/02:30pm 19.9 15.8 4.4 36 7.8 NNW 15 22 8 12 1019.1 1018.7 0.0
28/02:00pm 19.5 15.1 4.8 38 7.4 NNW 17 22 9 12 1019.3 1018.9 0.0
28/01:30pm 19.2 16.0 3.0 34 7.9 W 9 17 5 9 1019.7 1019.3 0.0
28/01:00pm 18.6 14.7 1.2 31 8.1 WNW 11 19 6 10 1020.4 1020.0 0.0
28/12:30pm 18.2 15.8 4.4 40 6.8 S 6 11 3 6 1020.9 1020.5 0.0
28/12:00pm 17.7 15.2 3.6 39 6.8 W 6 13 3 7 1021.4 1021.1 0.0
28/11:30am 17.2 14.8 4.5 43 6.3 WSW 6 11 3 6 1021.9 1021.5 0.0
28/11:00am 16.6 15.2 7.3 54 4.8 NW 4 9 2 5 1022.3 1021.9 0.0
28/10:30am 16.1 14.3 7.8 58 4.3 WNW 7 11 4 6 1022.6 1022.3 0.0
28/10:00am 13.8 11.7 6.7 62 3.6 W 7 13 4 7 1023.1 1022.8 0.0
28/09:30am 12.9 11.3 8.0 72 2.5 NNW 6 9 3 5 1023.6 1023.3 0.0
28/09:00am 10.9 10.2 6.8 76 2.0 CALM 0 0 0 0 1023.6 1023.3 0.0
28/08:30am 8.6 6.9 6.1 84 1.2 W 4 7 2 4 1023.7 1023.4 0.0
28/08:00am 7.1 5.0 6.0 93 0.5 WSW 6 7 3 4 1023.4 1023.0 0.0
28/07:30am 5.5 3.1 5.4 99 0.0 SSW 7 9 4 5 1023.3 1022.9 0.0
28/07:00am 3.8 1.1 3.7 99 0.0 SSW 7 9 4 5 1023.1 1022.8 0.0
28/06:30am 2.3 -0.5 2.2 99 0.0 ESE 6 7 3 4 1022.9 1022.6 0.0
28/06:04am 1.9 0.2 1.8 99 0.0 CALM 0 0 0 0 1022.9 1022.6 0.0
28/06:00am 2.0 0.3 1.9 99 0.0 CALM 0 0 0 0 1022.8 1022.5 0.0
28/05:52am 2.3 0.7 2.2 99 0.0 CALM 0 0 0 0 1022.8 1022.5 0.0
28/05:30am 2.5 0.9 2.4 99 0.0 CALM 0 0 0 0 1022.8 1022.5 0.0
28/05:00am 2.2 0.5 2.1 99 0.0 CALM 0 0 0 0 1022.7 1022.4 0.0
28/04:30am 1.8 0.1 1.7 99 0.0 CALM 0 0 0 0 1022.4 1022.0 0.0
28/04:00am 2.1 0.4 2.0 99 0.0 CALM 0 4 0 2 1022.1 1021.7 0.0
28/03:30am 2.9 1.0 2.8 99 0.0 SSW 2 6 1 3 1022.3 1021.9 0.0
28/03:00am 3.5 2.1 3.4 99 0.0 CALM 0 0 0 0 1022.2 1021.8 0.0
28/02:30am 2.8 0.4 2.1 95 0.3 SW 4 7 2 4 1022.2 1021.8 0.0
28/02:00am 5.0 3.8 4.6 97 0.2 CALM 0 0 0 0 1022.3 1021.9 0.0
28/01:30am 4.5 3.1 3.8 95 0.3 CALM 0 0 0 0 1022.6 1022.3 0.0
28/01:00am 4.7 1.9 2.2 84 1.0 SSW 6 7 3 4 1022.9 1022.6 0.0
28/12:30am 5.7 3.2 4.5 92 0.5 SW 7 9 4 5 1022.9 1022.6 0.0
28/12:00am 5.1 3.5 4.4 95 0.3 E 2 7 1 4 1022.9 1022.6 0.0
 
Date/Time
EST
Temp
°C
App
Temp
°C
Dew
Point
Rel
Hum
%
Delta-T
°C
Wind Press
QNH
hPa
Press
MSL
hPa
Rain
since 9 am
mm
Dir
 
Spd
km/h
Gust
km/h
Spd
kts
Gust
kts
27/11:30pm 5.7 3.2 3.5 86 1.0 SSE 6 7 3 4 1022.9 1022.6 0.0
27/11:00pm 7.0 4.1 4.8 86 1.0 S 9 9 5 5 1023.1 1022.8 0.0
27/10:30pm 6.8 4.0 2.9 76 1.7 SSE 7 9 4 5 1023.0 1022.7 0.0
27/10:00pm 7.7 5.6 3.7 76 1.8 E 4 7 2 4 1022.8 1022.5 0.0
27/09:30pm 8.7 7.4 4.3 74 2.0 CALM 0 6 0 3 1022.8 1022.5 0.0
27/09:00pm 7.5 4.8 3.9 78 1.6 E 7 11 4 6 1022.6 1022.3 0.0
27/08:30pm 10.6 7.3 4.7 67 2.8 SE 11 11 6 6 1022.6 1022.3 0.0

Other Formats:

Comma delimited format used in spreadsheet applications
http://www.bom.gov.au/fwo/IDN60801/IDN60801.94729.axf

JavaScript Object Notation format (JSON) in row-major order
http://www.bom.gov.au/fwo/IDN60801/IDN60801.94729.json